sensor_id;sensor_type;location;lat;lon;timestamp;temperature;humidity
68977;SHT31;56029;52.568;13.588;2022-12-18T00:02:16;-5.01;99.24
68977;SHT31;56029;52.568;13.588;2022-12-18T00:04:42;-5.01;98.90
68977;SHT31;56029;52.568;13.588;2022-12-18T00:07:07;-5.09;99.02
68977;SHT31;56029;52.568;13.588;2022-12-18T00:09:33;-5.13;99.09
68977;SHT31;56029;52.568;13.588;2022-12-18T00:11:59;-5.21;98.91
68977;SHT31;56029;52.568;13.588;2022-12-18T00:14:25;-5.23;99.24
68977;SHT31;56029;52.568;13.588;2022-12-18T00:16:50;-5.23;99.25
68977;SHT31;56029;52.568;13.588;2022-12-18T00:19:16;-5.27;98.80
68977;SHT31;56029;52.568;13.588;2022-12-18T00:21:42;-5.30;99.19
68977;SHT31;56029;52.568;13.588;2022-12-18T00:24:10;-5.26;99.25
68977;SHT31;56029;52.568;13.588;2022-12-18T00:26:36;-5.24;99.01
68977;SHT31;56029;52.568;13.588;2022-12-18T00:29:06;-5.24;99.18
68977;SHT31;56029;52.568;13.588;2022-12-18T00:31:32;-5.30;98.89
68977;SHT31;56029;52.568;13.588;2022-12-18T00:33:58;-5.26;99.07
68977;SHT31;56029;52.568;13.588;2022-12-18T00:36:26;-5.27;99.11
68977;SHT31;56029;52.568;13.588;2022-12-18T00:38:56;-5.30;99.23
68977;SHT31;56029;52.568;13.588;2022-12-18T00:41:23;-5.28;99.24
68977;SHT31;56029;52.568;13.588;2022-12-18T00:44:10;-5.28;99.15
68977;SHT31;56029;52.568;13.588;2022-12-18T00:46:36;-5.28;99.11
68977;SHT31;56029;52.568;13.588;2022-12-18T00:49:03;-5.31;99.15
68977;SHT31;56029;52.568;13.588;2022-12-18T00:51:29;-5.31;99.16
68977;SHT31;56029;52.568;13.588;2022-12-18T00:53:55;-5.34;99.57
68977;SHT31;56029;52.568;13.588;2022-12-18T00:56:20;-5.37;99.69
68977;SHT31;56029;52.568;13.588;2022-12-18T00:58:46;-5.34;99.77
68977;SHT31;56029;52.568;13.588;2022-12-18T01:01:12;-5.28;99.63
68977;SHT31;56029;52.568;13.588;2022-12-18T01:03:37;-5.26;99.58
68977;SHT31;56029;52.568;13.588;2022-12-18T01:06:07;-5.24;99.58
68977;SHT31;56029;52.568;13.588;2022-12-18T01:08:34;-5.24;99.54
68977;SHT31;56029;52.568;13.588;2022-12-18T01:11:00;-5.17;99.50
68977;SHT31;56029;52.568;13.588;2022-12-18T01:13:25;-5.20;99.63
68977;SHT31;56029;52.568;13.588;2022-12-18T01:15:51;-5.13;99.61
68977;SHT31;56029;52.568;13.588;2022-12-18T01:18:17;-5.13;99.30
68977;SHT31;56029;52.568;13.588;2022-12-18T01:20:42;-5.11;99.53
68977;SHT31;56029;52.568;13.588;2022-12-18T01:23:08;-5.23;99.36
68977;SHT31;56029;52.568;13.588;2022-12-18T01:25:35;-5.28;99.21
68977;SHT31;56029;52.568;13.588;2022-12-18T01:28:02;-5.27;99.14
68977;SHT31;56029;52.568;13.588;2022-12-18T01:30:28;-5.23;99.23
68977;SHT31;56029;52.568;13.588;2022-12-18T01:32:54;-5.23;99.06
68977;SHT31;56029;52.568;13.588;2022-12-18T01:35:19;-5.30;99.04
68977;SHT31;56029;52.568;13.588;2022-12-18T01:37:45;-5.32;99.14
68977;SHT31;56029;52.568;13.588;2022-12-18T01:40:12;-5.32;99.20
68977;SHT31;56029;52.568;13.588;2022-12-18T01:42:38;-5.28;99.15
68977;SHT31;56029;52.568;13.588;2022-12-18T01:47:55;-5.28;99.06
68977;SHT31;56029;52.568;13.588;2022-12-18T01:50:32;-5.28;99.12
68977;SHT31;56029;52.568;13.588;2022-12-18T01:53:11;-5.28;99.33
68977;SHT31;56029;52.568;13.588;2022-12-18T01:55:50;-5.28;99.12
68977;SHT31;56029;52.568;13.588;2022-12-18T01:58:18;-5.26;99.22
68977;SHT31;56029;52.568;13.588;2022-12-18T02:00:44;-5.23;99.24
68977;SHT31;56029;52.568;13.588;2022-12-18T02:03:10;-5.24;98.81
68977;SHT31;56029;52.568;13.588;2022-12-18T02:06:05;-5.34;98.90
68977;SHT31;56029;52.568;13.588;2022-12-18T02:14:41;-5.42;99.21
68977;SHT31;56029;52.568;13.588;2022-12-18T02:17:18;-5.40;99.29
68977;SHT31;56029;52.568;13.588;2022-12-18T02:20:43;-5.42;98.96
68977;SHT31;56029;52.568;13.588;2022-12-18T02:23:04;-5.40;99.14
68977;SHT31;56029;52.568;13.588;2022-12-18T02:25:52;-5.40;98.98
68977;SHT31;56029;52.568;13.588;2022-12-18T02:28:22;-5.44;98.80
68977;SHT31;56029;52.568;13.588;2022-12-18T02:30:53;-5.48;99.18
68977;SHT31;56029;52.568;13.588;2022-12-18T02:33:22;-5.47;98.97
68977;SHT31;56029;52.568;13.588;2022-12-18T02:35:53;-5.51;98.99
68977;SHT31;56029;52.568;13.588;2022-12-18T02:38:20;-5.64;99.60
68977;SHT31;56029;52.568;13.588;2022-12-18T02:40:48;-5.69;99.87
68977;SHT31;56029;52.568;13.588;2022-12-18T02:43:15;-5.68;99.72
68977;SHT31;56029;52.568;13.588;2022-12-18T02:45:50;-5.68;99.99
68977;SHT31;56029;52.568;13.588;2022-12-18T02:48:18;-5.74;99.63
68977;SHT31;56029;52.568;13.588;2022-12-18T02:51:17;-5.72;99.99
68977;SHT31;56029;52.568;13.588;2022-12-18T02:54:07;-5.77;99.99
68977;SHT31;56029;52.568;13.588;2022-12-18T02:56:50;-5.83;99.99
68977;SHT31;56029;52.568;13.588;2022-12-18T02:59:28;-5.83;99.68
68977;SHT31;56029;52.568;13.588;2022-12-18T03:02:02;-5.83;99.74
68977;SHT31;56029;52.568;13.588;2022-12-18T03:04:47;-6.00;99.99
68977;SHT31;56029;52.568;13.588;2022-12-18T03:07:38;-5.90;99.99
68977;SHT31;56029;52.568;13.588;2022-12-18T03:10:06;-5.81;99.99
68977;SHT31;56029;52.568;13.588;2022-12-18T03:12:36;-5.79;99.85
68977;SHT31;56029;52.568;13.588;2022-12-18T03:15:12;-5.71;99.79
68977;SHT31;56029;52.568;13.588;2022-12-18T03:17:42;-5.74;99.17
68977;SHT31;56029;52.568;13.588;2022-12-18T03:20:16;-5.75;99.43
68977;SHT31;56029;52.568;13.588;2022-12-18T03:22:44;-5.74;99.32
68977;SHT31;56029;52.568;13.588;2022-12-18T03:25:13;-5.77;99.21
68977;SHT31;56029;52.568;13.588;2022-12-18T03:27:44;-5.86;99.28
68977;SHT31;56029;52.568;13.588;2022-12-18T03:30:12;-5.88;99.38
68977;SHT31;56029;52.568;13.588;2022-12-18T03:32:56;-5.85;99.71
68977;SHT31;56029;52.568;13.588;2022-12-18T03:35:30;-5.79;99.71
68977;SHT31;56029;52.568;13.588;2022-12-18T03:37:57;-5.72;99.59
68977;SHT31;56029;52.568;13.588;2022-12-18T03:40:27;-5.72;99.35
68977;SHT31;56029;52.568;13.588;2022-12-18T03:43:03;-5.69;99.18
68977;SHT31;56029;52.568;13.588;2022-12-18T03:45:47;-5.68;99.32
68977;SHT31;56029;52.568;13.588;2022-12-18T03:48:28;-5.75;99.21
68977;SHT31;56029;52.568;13.588;2022-12-18T03:51:02;-5.71;99.24
68977;SHT31;56029;52.568;13.588;2022-12-18T03:53:43;-5.68;99.15
68977;SHT31;56029;52.568;13.588;2022-12-18T03:56:13;-5.74;99.17
68977;SHT31;56029;52.568;13.588;2022-12-18T03:58:41;-5.77;98.92
68977;SHT31;56029;52.568;13.588;2022-12-18T04:01:09;-5.78;99.16
68977;SHT31;56029;52.568;13.588;2022-12-18T04:03:37;-5.78;99.14
68977;SHT31;56029;52.568;13.588;2022-12-18T04:06:03;-5.78;99.07
68977;SHT31;56029;52.568;13.588;2022-12-18T04:08:31;-5.82;98.91
68977;SHT31;56029;52.568;13.588;2022-12-18T04:10:57;-5.88;98.82
68977;SHT31;56029;52.568;13.588;2022-12-18T04:13:32;-5.86;98.83
68977;SHT31;56029;52.568;13.588;2022-12-18T04:15:59;-5.90;98.74
68977;SHT31;56029;52.568;13.588;2022-12-18T04:18:24;-5.92;98.82
68977;SHT31;56029;52.568;13.588;2022-12-18T04:20:50;-5.90;98.69
68977;SHT31;56029;52.568;13.588;2022-12-18T04:23:16;-5.88;98.80
68977;SHT31;56029;52.568;13.588;2022-12-18T04:25:41;-5.92;98.73
68977;SHT31;56029;52.568;13.588;2022-12-18T04:28:07;-5.93;98.91
68977;SHT31;56029;52.568;13.588;2022-12-18T04:30:33;-5.89;98.66
68977;SHT31;56029;52.568;13.588;2022-12-18T04:33:00;-5.96;98.83
68977;SHT31;56029;52.568;13.588;2022-12-18T04:35:25;-5.89;99.05
68977;SHT31;56029;52.568;13.588;2022-12-18T04:37:51;-5.88;99.04
68977;SHT31;56029;52.568;13.588;2022-12-18T04:40:16;-5.86;98.71
68977;SHT31;56029;52.568;13.588;2022-12-18T04:42:42;-5.86;98.81
68977;SHT31;56029;52.568;13.588;2022-12-18T04:45:08;-5.88;99.06
68977;SHT31;56029;52.568;13.588;2022-12-18T04:47:34;-5.83;99.09
68977;SHT31;56029;52.568;13.588;2022-12-18T04:49:59;-5.89;98.78
68977;SHT31;56029;52.568;13.588;2022-12-18T04:52:25;-5.95;98.93
68977;SHT31;56029;52.568;13.588;2022-12-18T04:54:51;-5.93;98.77
68977;SHT31;56029;52.568;13.588;2022-12-18T04:57:16;-5.96;98.92
68977;SHT31;56029;52.568;13.588;2022-12-18T04:59:43;-6.00;99.19
68977;SHT31;56029;52.568;13.588;2022-12-18T05:02:09;-5.96;99.05
68977;SHT31;56029;52.568;13.588;2022-12-18T05:04:35;-5.98;98.93
68977;SHT31;56029;52.568;13.588;2022-12-18T05:07:00;-6.06;99.19
68977;SHT31;56029;52.568;13.588;2022-12-18T05:09:26;-6.05;99.09
68977;SHT31;56029;52.568;13.588;2022-12-18T05:11:51;-6.07;99.06
68977;SHT31;56029;52.568;13.588;2022-12-18T05:14:20;-6.07;99.06
68977;SHT31;56029;52.568;13.588;2022-12-18T05:16:45;-6.09;99.16
68977;SHT31;56029;52.568;13.588;2022-12-18T05:19:11;-6.11;99.18
68977;SHT31;56029;52.568;13.588;2022-12-18T05:21:37;-6.13;99.03
68977;SHT31;56029;52.568;13.588;2022-12-18T05:24:02;-6.11;99.03
68977;SHT31;56029;52.568;13.588;2022-12-18T05:26:28;-6.16;99.11
68977;SHT31;56029;52.568;13.588;2022-12-18T05:28:56;-6.14;99.14
68977;SHT31;56029;52.568;13.588;2022-12-18T05:31:22;-6.09;99.13
68977;SHT31;56029;52.568;13.588;2022-12-18T05:33:48;-6.11;98.87
68977;SHT31;56029;52.568;13.588;2022-12-18T05:36:16;-6.11;98.83
68977;SHT31;56029;52.568;13.588;2022-12-18T05:38:41;-6.10;98.92
68977;SHT31;56029;52.568;13.588;2022-12-18T05:41:07;-6.09;98.77
68977;SHT31;56029;52.568;13.588;2022-12-18T05:43:35;-6.10;98.92
68977;SHT31;56029;52.568;13.588;2022-12-18T05:46:11;-6.11;98.76
68977;SHT31;56029;52.568;13.588;2022-12-18T05:48:37;-6.17;98.59
68977;SHT31;56029;52.568;13.588;2022-12-18T05:51:05;-6.17;99.00
68977;SHT31;56029;52.568;13.588;2022-12-18T05:53:31;-6.17;98.95
68977;SHT31;56029;52.568;13.588;2022-12-18T05:56:01;-6.14;98.74
68977;SHT31;56029;52.568;13.588;2022-12-18T05:58:27;-6.16;98.79
68977;SHT31;56029;52.568;13.588;2022-12-18T06:00:52;-6.11;98.76
68977;SHT31;56029;52.568;13.588;2022-12-18T06:03:18;-6.11;98.78
68977;SHT31;56029;52.568;13.588;2022-12-18T06:05:45;-6.11;98.66
68977;SHT31;56029;52.568;13.588;2022-12-18T06:08:12;-6.14;98.62
68977;SHT31;56029;52.568;13.588;2022-12-18T06:10:38;-6.20;98.68
68977;SHT31;56029;52.568;13.588;2022-12-18T06:13:05;-6.19;98.86
68977;SHT31;56029;52.568;13.588;2022-12-18T06:15:31;-6.21;98.71
68977;SHT31;56029;52.568;13.588;2022-12-18T06:17:57;-6.19;99.16
68977;SHT31;56029;52.568;13.588;2022-12-18T06:20:23;-6.14;98.89
68977;SHT31;56029;52.568;13.588;2022-12-18T06:22:48;-6.17;99.04
68977;SHT31;56029;52.568;13.588;2022-12-18T06:25:14;-6.16;98.89
68977;SHT31;56029;52.568;13.588;2022-12-18T06:27:40;-6.21;98.72
68977;SHT31;56029;52.568;13.588;2022-12-18T06:30:06;-6.21;98.92
68977;SHT31;56029;52.568;13.588;2022-12-18T06:32:32;-6.20;99.05
68977;SHT31;56029;52.568;13.588;2022-12-18T06:34:58;-6.21;99.02
68977;SHT31;56029;52.568;13.588;2022-12-18T06:37:23;-6.20;99.13
68977;SHT31;56029;52.568;13.588;2022-12-18T06:39:53;-6.21;99.16
68977;SHT31;56029;52.568;13.588;2022-12-18T06:42:18;-6.20;99.04
68977;SHT31;56029;52.568;13.588;2022-12-18T06:44:47;-6.21;98.99
68977;SHT31;56029;52.568;13.588;2022-12-18T06:47:12;-6.21;99.50
68977;SHT31;56029;52.568;13.588;2022-12-18T06:49:38;-6.17;99.41
68977;SHT31;56029;52.568;13.588;2022-12-18T06:52:03;-6.21;99.32
68977;SHT31;56029;52.568;13.588;2022-12-18T06:54:29;-6.21;99.40
68977;SHT31;56029;52.568;13.588;2022-12-18T06:56:55;-6.20;99.32
68977;SHT31;56029;52.568;13.588;2022-12-18T06:59:21;-6.17;99.51
68977;SHT31;56029;52.568;13.588;2022-12-18T07:01:47;-6.17;99.28
68977;SHT31;56029;52.568;13.588;2022-12-18T07:04:13;-6.20;99.36
68977;SHT31;56029;52.568;13.588;2022-12-18T07:06:38;-6.19;99.47
68977;SHT31;56029;52.568;13.588;2022-12-18T07:09:04;-6.16;99.33
68977;SHT31;56029;52.568;13.588;2022-12-18T07:11:32;-6.14;99.29
68977;SHT31;56029;52.568;13.588;2022-12-18T07:13:58;-6.11;99.29
68977;SHT31;56029;52.568;13.588;2022-12-18T07:16:26;-6.09;99.22
68977;SHT31;56029;52.568;13.588;2022-12-18T07:18:54;-6.10;99.24
68977;SHT31;56029;52.568;13.588;2022-12-18T07:21:21;-6.07;99.18
68977;SHT31;56029;52.568;13.588;2022-12-18T07:23:47;-6.05;98.98
68977;SHT31;56029;52.568;13.588;2022-12-18T07:26:14;-6.09;98.95
68977;SHT31;56029;52.568;13.588;2022-12-18T07:28:42;-6.07;98.98
68977;SHT31;56029;52.568;13.588;2022-12-18T07:31:13;-6.13;99.07
68977;SHT31;56029;52.568;13.588;2022-12-18T07:33:39;-6.23;99.15
68977;SHT31;56029;52.568;13.588;2022-12-18T07:36:06;-6.21;99.37
68977;SHT31;56029;52.568;13.588;2022-12-18T07:38:34;-6.19;99.32
68977;SHT31;56029;52.568;13.588;2022-12-18T07:41:01;-6.21;99.35
68977;SHT31;56029;52.568;13.588;2022-12-18T07:43:27;-6.19;99.51
68977;SHT31;56029;52.568;13.588;2022-12-18T07:45:52;-6.16;99.33
68977;SHT31;56029;52.568;13.588;2022-12-18T07:48:18;-6.11;99.25
68977;SHT31;56029;52.568;13.588;2022-12-18T07:50:44;-6.11;99.29
68977;SHT31;56029;52.568;13.588;2022-12-18T07:53:09;-6.11;99.29
68977;SHT31;56029;52.568;13.588;2022-12-18T07:55:35;-6.09;99.46
68977;SHT31;56029;52.568;13.588;2022-12-18T07:58:03;-6.06;99.33
68977;SHT31;56029;52.568;13.588;2022-12-18T08:00:28;-5.99;99.43
68977;SHT31;56029;52.568;13.588;2022-12-18T08:02:54;-6.02;98.95
68977;SHT31;56029;52.568;13.588;2022-12-18T08:05:20;-5.99;98.89
68977;SHT31;56029;52.568;13.588;2022-12-18T08:07:46;-6.00;99.00
68977;SHT31;56029;52.568;13.588;2022-12-18T08:10:12;-6.00;99.21
68977;SHT31;56029;52.568;13.588;2022-12-18T08:12:40;-6.02;99.25
68977;SHT31;56029;52.568;13.588;2022-12-18T08:15:06;-5.95;99.31
68977;SHT31;56029;52.568;13.588;2022-12-18T08:17:32;-5.93;99.37
68977;SHT31;56029;52.568;13.588;2022-12-18T08:19:58;-5.89;99.16
68977;SHT31;56029;52.568;13.588;2022-12-18T08:22:23;-5.93;99.31
68977;SHT31;56029;52.568;13.588;2022-12-18T08:24:49;-5.92;99.38
68977;SHT31;56029;52.568;13.588;2022-12-18T08:27:14;-5.89;99.28
68977;SHT31;56029;52.568;13.588;2022-12-18T08:29:40;-5.89;99.38
68977;SHT31;56029;52.568;13.588;2022-12-18T08:32:06;-5.96;99.54
68977;SHT31;56029;52.568;13.588;2022-12-18T08:34:31;-5.83;99.44
68977;SHT31;56029;52.568;13.588;2022-12-18T08:36:57;-5.81;99.56
68977;SHT31;56029;52.568;13.588;2022-12-18T08:39:22;-5.74;99.58
68977;SHT31;56029;52.568;13.588;2022-12-18T08:41:48;-5.71;99.80
68977;SHT31;56029;52.568;13.588;2022-12-18T08:44:33;-5.71;99.75
68977;SHT31;56029;52.568;13.588;2022-12-18T08:47:08;-5.65;99.44
68977;SHT31;56029;52.568;13.588;2022-12-18T08:49:34;-5.67;99.99
68977;SHT31;56029;52.568;13.588;2022-12-18T08:52:00;-5.59;99.99
68977;SHT31;56029;52.568;13.588;2022-12-18T08:54:28;-5.55;99.66
68977;SHT31;56029;52.568;13.588;2022-12-18T08:56:54;-5.55;99.70
68977;SHT31;56029;52.568;13.588;2022-12-18T08:59:19;-5.48;99.76
68977;SHT31;56029;52.568;13.588;2022-12-18T09:01:46;-5.42;99.62
68977;SHT31;56029;52.568;13.588;2022-12-18T09:04:12;-5.37;99.58
68977;SHT31;56029;52.568;13.588;2022-12-18T09:06:38;-5.37;99.77
68977;SHT31;56029;52.568;13.588;2022-12-18T09:09:04;-5.31;99.90
68977;SHT31;56029;52.568;13.588;2022-12-18T09:11:31;-5.27;99.66
68977;SHT31;56029;52.568;13.588;2022-12-18T09:13:58;-5.20;99.68
68977;SHT31;56029;52.568;13.588;2022-12-18T09:16:25;-5.11;99.63
68977;SHT31;56029;52.568;13.588;2022-12-18T09:18:51;-5.09;99.52
68977;SHT31;56029;52.568;13.588;2022-12-18T09:21:20;-5.06;99.49
68977;SHT31;56029;52.568;13.588;2022-12-18T09:23:50;-4.93;99.54
68977;SHT31;56029;52.568;13.588;2022-12-18T09:26:16;-4.88;99.14
68977;SHT31;56029;52.568;13.588;2022-12-18T09:28:42;-4.85;98.98
68977;SHT31;56029;52.568;13.588;2022-12-18T09:31:10;-4.80;98.99
68977;SHT31;56029;52.568;13.588;2022-12-18T09:33:35;-4.86;99.03
68977;SHT31;56029;52.568;13.588;2022-12-18T09:36:06;-4.80;99.13
68977;SHT31;56029;52.568;13.588;2022-12-18T09:38:33;-4.72;99.15
68977;SHT31;56029;52.568;13.588;2022-12-18T09:41:03;-4.72;98.77
68977;SHT31;56029;52.568;13.588;2022-12-18T09:43:36;-4.79;98.85
68977;SHT31;56029;52.568;13.588;2022-12-18T09:46:10;-4.68;99.08
68977;SHT31;56029;52.568;13.588;2022-12-18T09:48:46;-4.64;99.02
68977;SHT31;56029;52.568;13.588;2022-12-18T09:51:16;-4.57;99.10
68977;SHT31;56029;52.568;13.588;2022-12-18T09:53:47;-4.55;99.01
68977;SHT31;56029;52.568;13.588;2022-12-18T09:56:20;-4.49;98.72
68977;SHT31;56029;52.568;13.588;2022-12-18T09:58:57;-4.48;98.82
68977;SHT31;56029;52.568;13.588;2022-12-18T10:01:25;-4.54;98.86
68977;SHT31;56029;52.568;13.588;2022-12-18T10:03:52;-4.55;98.77
68977;SHT31;56029;52.568;13.588;2022-12-18T10:06:46;-4.54;99.27
68977;SHT31;56029;52.568;13.588;2022-12-18T10:13:05;-4.38;98.52
68977;SHT31;56029;52.568;13.588;2022-12-18T10:15:58;-4.38;98.77
68977;SHT31;56029;52.568;13.588;2022-12-18T10:18:56;-4.32;98.92
68977;SHT31;56029;52.568;13.588;2022-12-18T10:21:32;-4.25;98.94
68977;SHT31;56029;52.568;13.588;2022-12-18T10:24:38;-4.24;99.02
68977;SHT31;56029;52.568;13.588;2022-12-18T10:27:16;-4.17;98.78
68977;SHT31;56029;52.568;13.588;2022-12-18T10:29:48;-4.17;98.78
68977;SHT31;56029;52.568;13.588;2022-12-18T10:32:20;-4.15;98.52
68977;SHT31;56029;52.568;13.588;2022-12-18T10:34:49;-4.07;98.77
68977;SHT31;56029;52.568;13.588;2022-12-18T10:37:21;-4.07;98.53
68977;SHT31;56029;52.568;13.588;2022-12-18T10:42:35;-4.06;98.94
68977;SHT31;56029;52.568;13.588;2022-12-18T10:45:08;-4.04;98.80
68977;SHT31;56029;52.568;13.588;2022-12-18T10:47:34;-4.04;98.77
68977;SHT31;56029;52.568;13.588;2022-12-18T10:50:00;-4.00;98.91
68977;SHT31;56029;52.568;13.588;2022-12-18T10:52:27;-4.06;98.70
68977;SHT31;56029;52.568;13.588;2022-12-18T10:54:55;-4.06;98.20
68977;SHT31;56029;52.568;13.588;2022-12-18T10:59:55;-4.10;98.51
68977;SHT31;56029;52.568;13.588;2022-12-18T11:02:33;-4.10;98.70
68977;SHT31;56029;52.568;13.588;2022-12-18T11:04:59;-4.10;98.66
68977;SHT31;56029;52.568;13.588;2022-12-18T11:07:25;-4.13;98.54
68977;SHT31;56029;52.568;13.588;2022-12-18T11:10:03;-4.13;98.81
68977;SHT31;56029;52.568;13.588;2022-12-18T11:12:29;-4.17;98.78
68977;SHT31;56029;52.568;13.588;2022-12-18T11:14:58;-4.18;98.72
68977;SHT31;56029;52.568;13.588;2022-12-18T11:17:32;-4.15;98.91
68977;SHT31;56029;52.568;13.588;2022-12-18T11:19:59;-4.13;98.87
68977;SHT31;56029;52.568;13.588;2022-12-18T11:22:31;-4.07;98.96
68977;SHT31;56029;52.568;13.588;2022-12-18T11:25:04;-4.00;99.19
68977;SHT31;56029;52.568;13.588;2022-12-18T11:27:31;-3.96;99.27
68977;SHT31;56029;52.568;13.588;2022-12-18T11:30:22;-4.01;98.39
68977;SHT31;56029;52.568;13.588;2022-12-18T11:32:50;-3.96;98.20
68977;SHT31;56029;52.568;13.588;2022-12-18T11:35:38;-4.07;98.63
68977;SHT31;56029;52.568;13.588;2022-12-18T11:38:18;-4.00;98.30
68977;SHT31;56029;52.568;13.588;2022-12-18T11:40:51;-4.09;98.32
68977;SHT31;56029;52.568;13.588;2022-12-18T11:46:13;-4.27;98.62
68977;SHT31;56029;52.568;13.588;2022-12-18T11:48:52;-4.14;98.98
68977;SHT31;56029;52.568;13.588;2022-12-18T11:51:34;-4.17;98.75
68977;SHT31;56029;52.568;13.588;2022-12-18T11:54:12;-4.10;98.71
68977;SHT31;56029;52.568;13.588;2022-12-18T11:56:53;-4.04;98.95
68977;SHT31;56029;52.568;13.588;2022-12-18T11:59:33;-3.94;98.58
68977;SHT31;56029;52.568;13.588;2022-12-18T12:02:22;-3.96;98.01
68977;SHT31;56029;52.568;13.588;2022-12-18T12:05:25;-3.90;98.39
68977;SHT31;56029;52.568;13.588;2022-12-18T12:08:22;-3.85;98.49
68977;SHT31;56029;52.568;13.588;2022-12-18T12:11:05;-3.86;97.80
68977;SHT31;56029;52.568;13.588;2022-12-18T12:14:08;-3.85;97.85
68977;SHT31;56029;52.568;13.588;2022-12-18T12:22:34;-3.83;97.72
68977;SHT31;56029;52.568;13.588;2022-12-18T12:25:17;-3.82;97.90
68977;SHT31;56029;52.568;13.588;2022-12-18T12:28:03;-3.79;97.78
68977;SHT31;56029;52.568;13.588;2022-12-18T12:33:11;-3.76;97.74
68977;SHT31;56029;52.568;13.588;2022-12-18T12:36:00;-3.73;97.51
68977;SHT31;56029;52.568;13.588;2022-12-18T12:38:35;-3.78;97.52
68977;SHT31;56029;52.568;13.588;2022-12-18T12:41:06;-3.76;97.47
68977;SHT31;56029;52.568;13.588;2022-12-18T12:43:56;-3.76;97.66
68977;SHT31;56029;52.568;13.588;2022-12-18T12:46:23;-3.75;97.43
68977;SHT31;56029;52.568;13.588;2022-12-18T12:48:59;-3.78;97.49
68977;SHT31;56029;52.568;13.588;2022-12-18T12:51:34;-3.75;97.47
68977;SHT31;56029;52.568;13.588;2022-12-18T12:54:01;-3.78;97.19
68977;SHT31;56029;52.568;13.588;2022-12-18T12:56:51;-3.79;97.00
68977;SHT31;56029;52.568;13.588;2022-12-18T12:59:34;-3.75;97.00
68977;SHT31;56029;52.568;13.588;2022-12-18T13:02:18;-3.72;97.23
68977;SHT31;56029;52.568;13.588;2022-12-18T13:05:09;-3.66;97.23
68977;SHT31;56029;52.568;13.588;2022-12-18T13:07:44;-3.70;96.92
68977;SHT31;56029;52.568;13.588;2022-12-18T13:18:14;-3.79;97.57
68977;SHT31;56029;52.568;13.588;2022-12-18T13:25:51;-3.90;97.20
68977;SHT31;56029;52.568;13.588;2022-12-18T13:28:21;-3.94;97.60
68977;SHT31;56029;52.568;13.588;2022-12-18T13:30:54;-3.99;97.62
68977;SHT31;56029;52.568;13.588;2022-12-18T13:35:52;-3.94;98.82
68977;SHT31;56029;52.568;13.588;2022-12-18T13:40:53;-3.89;98.00
68977;SHT31;56029;52.568;13.588;2022-12-18T13:45:48;-3.90;97.89
68977;SHT31;56029;52.568;13.588;2022-12-18T13:48:23;-3.90;98.05
68977;SHT31;56029;52.568;13.588;2022-12-18T13:50:56;-3.87;98.28
68977;SHT31;56029;52.568;13.588;2022-12-18T13:53:26;-3.85;98.24
68977;SHT31;56029;52.568;13.588;2022-12-18T13:55:52;-3.90;98.20
68977;SHT31;56029;52.568;13.588;2022-12-18T13:58:18;-3.91;98.40
68977;SHT31;56029;52.568;13.588;2022-12-18T14:00:44;-3.96;98.63
68977;SHT31;56029;52.568;13.588;2022-12-18T14:03:19;-3.99;98.82
68977;SHT31;56029;52.568;13.588;2022-12-18T14:05:45;-4.03;98.80
68977;SHT31;56029;52.568;13.588;2022-12-18T14:08:16;-4.04;98.98
68977;SHT31;56029;52.568;13.588;2022-12-18T14:10:44;-4.04;98.86
68977;SHT31;56029;52.568;13.588;2022-12-18T14:13:15;-4.11;98.90
68977;SHT31;56029;52.568;13.588;2022-12-18T14:15:43;-4.13;98.91
68977;SHT31;56029;52.568;13.588;2022-12-18T14:18:38;-4.14;99.04
68977;SHT31;56029;52.568;13.588;2022-12-18T14:21:17;-4.18;99.22
68977;SHT31;56029;52.568;13.588;2022-12-18T14:23:43;-4.20;99.65
68977;SHT31;56029;52.568;13.588;2022-12-18T14:26:24;-4.17;99.65
68977;SHT31;56029;52.568;13.588;2022-12-18T14:28:50;-4.15;99.60
68977;SHT31;56029;52.568;13.588;2022-12-18T14:31:20;-4.14;99.81
68977;SHT31;56029;52.568;13.588;2022-12-18T14:33:47;-4.09;99.81
68977;SHT31;56029;52.568;13.588;2022-12-18T14:36:17;-4.06;99.80
68977;SHT31;56029;52.568;13.588;2022-12-18T14:38:43;-4.01;99.82
68977;SHT31;56029;52.568;13.588;2022-12-18T14:41:13;-3.94;99.88
68977;SHT31;56029;52.568;13.588;2022-12-18T14:43:42;-3.99;99.56
68977;SHT31;56029;52.568;13.588;2022-12-18T14:46:36;-4.00;99.54
68977;SHT31;56029;52.568;13.588;2022-12-18T14:49:03;-4.09;99.25
68977;SHT31;56029;52.568;13.588;2022-12-18T14:51:32;-4.07;99.62
68977;SHT31;56029;52.568;13.588;2022-12-18T14:54:03;-4.09;99.81
68977;SHT31;56029;52.568;13.588;2022-12-18T14:56:35;-4.11;99.95
68977;SHT31;56029;52.568;13.588;2022-12-18T14:59:03;-4.21;99.99
68977;SHT31;56029;52.568;13.588;2022-12-18T15:01:36;-4.13;99.99
68977;SHT31;56029;52.568;13.588;2022-12-18T15:04:04;-4.09;99.99
68977;SHT31;56029;52.568;13.588;2022-12-18T15:06:36;-4.07;99.99
68977;SHT31;56029;52.568;13.588;2022-12-18T15:09:06;-4.09;99.92
68977;SHT31;56029;52.568;13.588;2022-12-18T15:11:46;-4.11;99.64
68977;SHT31;56029;52.568;13.588;2022-12-18T15:16:56;-4.13;99.77
68977;SHT31;56029;52.568;13.588;2022-12-18T15:19:30;-4.13;99.99
68977;SHT31;56029;52.568;13.588;2022-12-18T15:21:57;-4.17;99.99
68977;SHT31;56029;52.568;13.588;2022-12-18T15:24:27;-4.11;99.99
68977;SHT31;56029;52.568;13.588;2022-12-18T15:26:54;-4.07;99.97
68977;SHT31;56029;52.568;13.588;2022-12-18T15:29:24;-4.06;99.69
68977;SHT31;56029;52.568;13.588;2022-12-18T15:32:02;-4.11;99.59
68977;SHT31;56029;52.568;13.588;2022-12-18T15:34:29;-4.11;99.83
68977;SHT31;56029;52.568;13.588;2022-12-18T15:36:55;-4.13;99.56
68977;SHT31;56029;52.568;13.588;2022-12-18T15:39:20;-4.17;99.65
68977;SHT31;56029;52.568;13.588;2022-12-18T15:41:46;-4.15;99.68
68977;SHT31;56029;52.568;13.588;2022-12-18T15:44:30;-4.13;99.59
68977;SHT31;56029;52.568;13.588;2022-12-18T15:46:56;-4.17;99.51
68977;SHT31;56029;52.568;13.588;2022-12-18T15:49:22;-4.17;99.44
68977;SHT31;56029;52.568;13.588;2022-12-18T15:51:59;-4.17;99.49
68977;SHT31;56029;52.568;13.588;2022-12-18T15:54:25;-4.17;99.71
68977;SHT31;56029;52.568;13.588;2022-12-18T15:57:17;-4.13;99.60
68977;SHT31;56029;52.568;13.588;2022-12-18T15:59:54;-4.13;99.69
68977;SHT31;56029;52.568;13.588;2022-12-18T16:02:21;-4.10;99.66
68977;SHT31;56029;52.568;13.588;2022-12-18T16:04:49;-4.10;99.68
68977;SHT31;56029;52.568;13.588;2022-12-18T16:07:14;-4.10;99.36
68977;SHT31;56029;52.568;13.588;2022-12-18T16:09:41;-4.13;99.34
68977;SHT31;56029;52.568;13.588;2022-12-18T16:12:17;-4.10;99.46
68977;SHT31;56029;52.568;13.588;2022-12-18T16:14:46;-4.17;99.48
68977;SHT31;56029;52.568;13.588;2022-12-18T16:17:12;-4.14;99.49
68977;SHT31;56029;52.568;13.588;2022-12-18T16:19:39;-4.24;99.43
68977;SHT31;56029;52.568;13.588;2022-12-18T16:22:04;-4.21;99.49
68977;SHT31;56029;52.568;13.588;2022-12-18T16:24:32;-4.15;99.30
68977;SHT31;56029;52.568;13.588;2022-12-18T16:26:59;-4.14;98.98
68977;SHT31;56029;52.568;13.588;2022-12-18T16:29:28;-4.18;98.97